createdAt,value
2019-03-26T00:02:25.706Z,71.74
2019-03-26T00:05:00.813Z,71.79
2019-03-26T00:07:34.607Z,71.75
2019-03-26T00:10:10.286Z,71.90
2019-03-26T00:12:45.715Z,72.08
2019-03-26T00:15:21.293Z,72.08
2019-03-26T00:17:56.697Z,72.11
2019-03-26T00:20:32.285Z,71.97
2019-03-26T00:23:07.668Z,71.97
2019-03-26T00:25:43.280Z,71.95
2019-03-26T00:28:18.659Z,71.95
2019-03-26T00:30:53.900Z,71.78
2019-03-26T00:33:36.234Z,71.66
2019-03-26T00:36:04.306Z,71.64
2019-03-26T00:38:39.749Z,71.64
2019-03-26T00:41:13.567Z,71.66
2019-03-26T00:43:48.704Z,71.80
2019-03-26T00:46:24.289Z,71.85
2019-03-26T00:48:59.670Z,71.84
2019-03-26T00:51:35.289Z,72.01
2019-03-26T00:54:10.704Z,72.04
2019-03-26T00:56:46.287Z,72.01
2019-03-26T01:00:56.319Z,72.08
2019-03-26T01:03:31.694Z,72.13
2019-03-26T01:06:06.595Z,71.99
2019-03-26T01:08:41.789Z,71.99
2019-03-26T01:11:15.589Z,71.91
2019-03-26T01:13:50.664Z,71.71
2019-03-26T01:16:26.270Z,71.54
2019-03-26T01:19:01.684Z,71.45
2019-03-26T01:21:37.883Z,71.54
2019-03-26T01:24:12.932Z,71.62
2019-03-26T01:26:46.416Z,71.63
2019-03-26T01:29:21.680Z,71.71
2019-03-26T01:31:56.950Z,71.66
2019-03-26T01:34:45.251Z,71.54
2019-03-26T01:37:09.350Z,71.44
2019-03-26T01:39:44.670Z,71.44
2019-03-26T01:42:19.937Z,71.50
2019-03-26T01:44:53.569Z,71.16
2019-03-26T01:47:29.670Z,71.33
2019-03-26T01:50:04.936Z,71.33
2019-03-26T01:52:40.319Z,71.08
2019-03-26T01:55:15.688Z,70.90
2019-03-26T01:57:51.270Z,70.81
2019-03-26T02:00:26.669Z,70.71
2019-03-26T02:03:02.298Z,70.60
2019-03-26T02:05:37.700Z,70.81
2019-03-26T02:08:13.282Z,70.91
2019-03-26T02:10:48.633Z,70.77
2019-03-26T02:13:24.288Z,70.78
2019-03-26T02:15:59.670Z,70.59
2019-03-26T02:18:35.275Z,70.56
2019-03-26T02:21:11.310Z,70.36
2019-03-26T02:23:46.688Z,70.41
2019-03-26T02:26:22.245Z,70.41
2019-03-26T02:28:57.671Z,70.24
2019-03-26T02:31:32.876Z,70.20
2019-03-26T02:34:06.588Z,70.12
2019-03-26T02:36:41.875Z,69.98
2019-03-26T02:39:15.602Z,69.98
2019-03-26T02:41:50.875Z,69.84
2019-03-26T02:44:24.598Z,69.95
2019-03-26T02:46:59.796Z,69.53
2019-03-26T02:49:35.081Z,69.59
2019-03-26T02:52:10.309Z,69.43
2019-03-26T02:54:45.705Z,69.43
2019-03-26T02:57:21.172Z,69.19
2019-03-26T02:59:56.342Z,68.17
2019-03-26T03:02:31.670Z,68.17
2019-03-26T03:05:07.267Z,68.09
2019-03-26T03:07:42.703Z,67.93
2019-03-26T03:10:18.297Z,67.93
2019-03-26T03:12:53.680Z,67.65
2019-03-26T03:15:29.125Z,67.11
2019-03-26T03:18:04.346Z,67.02
2019-03-26T03:20:39.689Z,67.02
2019-03-26T03:23:15.291Z,67.23
2019-03-26T03:25:50.694Z,67.24
2019-03-26T03:28:26.276Z,67.22
2019-03-26T03:31:01.656Z,67.21
2019-03-26T03:33:37.274Z,66.96
2019-03-26T03:36:12.675Z,66.94
2019-03-26T03:38:48.273Z,66.87
2019-03-26T03:41:23.669Z,66.75
2019-03-26T03:43:58.886Z,66.93
2019-03-26T03:46:32.668Z,66.43
2019-03-26T03:49:07.785Z,66.58
2019-03-26T03:51:45.262Z,66.79
2019-03-26T03:54:21.334Z,67.24
2019-03-26T03:56:58.709Z,67.20
2019-03-26T03:59:35.280Z,67.21
2019-03-26T04:02:10.652Z,67.48
2019-03-26T04:04:45.923Z,67.68
2019-03-26T04:07:21.290Z,67.80
2019-03-26T04:09:56.647Z,67.64
2019-03-26T04:12:31.901Z,67.65
2019-03-26T04:15:07.568Z,68.38
2019-03-26T04:17:42.915Z,69.06
2019-03-26T04:20:16.555Z,69.74
2019-03-26T04:22:51.677Z,70.03
2019-03-26T04:25:27.142Z,69.86
2019-03-26T04:28:02.335Z,69.72
2019-03-26T04:30:37.859Z,69.72
2019-03-26T04:33:11.441Z,70.06
2019-03-26T04:35:46.674Z,70.37
2019-03-26T04:38:22.282Z,70.37
2019-03-26T04:40:57.683Z,70.62
2019-03-26T04:43:33.253Z,71.19
2019-03-26T04:46:08.707Z,71.33
2019-03-26T04:49:47.775Z,71.26
2019-03-26T04:52:23.335Z,71.26
2019-03-26T04:54:58.705Z,71.78
2019-03-26T04:57:34.267Z,72.02
2019-03-26T05:00:10.123Z,72.07
2019-03-26T05:02:45.638Z,72.11
2019-03-26T05:05:20.863Z,71.98
2019-03-26T05:07:56.261Z,72.21
2019-03-26T05:10:31.702Z,72.00
2019-03-26T05:13:07.247Z,71.98
2019-03-26T05:15:42.692Z,72.09
2019-03-26T05:18:18.281Z,72.09
2019-03-26T05:20:53.674Z,72.73
2019-03-26T05:23:29.267Z,73.26
2019-03-26T05:26:04.771Z,73.46
2019-03-26T05:28:40.143Z,73.46
2019-03-26T05:31:15.540Z,73.24
2019-03-26T05:33:52.239Z,73.24
2019-03-26T05:36:27.677Z,73.36
2019-03-26T05:39:03.073Z,73.38
2019-03-26T05:41:38.312Z,73.25
2019-03-26T05:44:13.662Z,73.25
2019-03-26T05:46:49.274Z,73.04
2019-03-26T05:49:24.672Z,73.00
2019-03-26T05:52:00.867Z,73.01
2019-03-26T05:54:36.280Z,72.59
2019-03-26T05:57:11.636Z,72.56
2019-03-26T05:59:46.935Z,72.37
2019-03-26T06:02:20.701Z,72.46
2019-03-26T06:04:56.273Z,72.58
2019-03-26T06:07:31.672Z,72.76
2019-03-26T06:10:08.342Z,72.76
2019-03-26T06:12:43.650Z,72.51
2019-03-26T06:15:19.281Z,72.11
2019-03-26T06:17:57.452Z,72.57
2019-03-26T06:20:31.677Z,72.59
2019-03-26T06:23:07.288Z,72.25
2019-03-26T06:25:42.645Z,72.09
2019-03-26T06:28:17.926Z,72.08
2019-03-26T06:30:53.269Z,71.67
2019-03-26T06:33:28.651Z,71.09
2019-03-26T06:36:03.891Z,70.93
2019-03-26T06:38:37.571Z,70.88
2019-03-26T06:41:12.771Z,70.44
2019-03-26T06:43:46.552Z,71.03
2019-03-26T06:46:21.686Z,71.03
2019-03-26T06:48:57.190Z,70.76
2019-03-26T06:51:32.685Z,70.09
2019-03-26T06:54:08.279Z,68.52
2019-03-26T06:59:29.596Z,68.58
2019-03-26T07:02:05.342Z,68.38
2019-03-26T07:04:47.893Z,68.38
2019-03-26T07:07:31.317Z,68.00
2019-03-26T07:11:32.688Z,67.40
2019-03-26T07:14:08.724Z,67.40
2019-03-26T07:16:44.255Z,67.64
2019-03-26T07:19:19.656Z,67.29
2019-03-26T07:21:54.866Z,67.03
2019-03-26T07:24:28.578Z,67.26
2019-03-26T07:27:03.732Z,67.01
2019-03-26T07:29:39.266Z,66.96
2019-03-26T07:32:14.635Z,66.74
2019-03-26T07:34:49.878Z,66.70
2019-03-26T07:37:23.569Z,67.10
2019-03-26T07:39:58.666Z,67.20
2019-03-26T07:42:33.879Z,66.87
2019-03-26T07:45:07.858Z,66.92
2019-03-26T07:47:43.258Z,67.33
2019-03-26T07:50:18.642Z,67.06
2019-03-26T07:52:55.276Z,66.54
2019-03-26T07:55:30.755Z,67.02
2019-03-26T07:58:04.615Z,67.05
2019-03-26T08:00:40.783Z,67.09
2019-03-26T08:03:16.268Z,66.36
2019-03-26T08:05:51.640Z,66.10
2019-03-26T08:08:27.249Z,66.29
2019-03-26T08:11:02.640Z,66.00
2019-03-26T08:13:40.875Z,65.14
2019-03-26T08:16:14.880Z,65.14
2019-03-26T08:18:48.548Z,64.20
2019-03-26T08:21:23.713Z,64.15
2019-03-26T08:23:59.260Z,64.06
2019-03-26T08:26:34.685Z,63.81
2019-03-26T08:29:10.253Z,63.40
2019-03-26T08:31:45.685Z,61.93
2019-03-26T08:34:21.294Z,61.93
2019-03-26T08:36:56.688Z,61.81
2019-03-26T08:39:32.242Z,61.79
2019-03-26T08:42:07.631Z,61.96
2019-03-26T08:44:42.851Z,62.14
2019-03-26T08:47:18.271Z,61.97
2019-03-26T08:49:53.638Z,61.87
2019-03-26T08:52:28.931Z,61.83
2019-03-26T08:55:04.449Z,61.92
2019-03-26T08:57:39.929Z,61.03
2019-03-26T09:00:15.673Z,60.97
2019-03-26T09:02:51.263Z,60.97
2019-03-26T09:05:26.631Z,61.22
2019-03-26T09:08:01.885Z,61.13
2019-03-26T09:10:37.267Z,61.26
2019-03-26T09:13:12.654Z,61.26
2019-03-26T09:15:48.310Z,61.30
2019-03-26T09:18:23.671Z,60.98
2019-03-26T09:20:58.945Z,61.24
2019-03-26T09:23:32.562Z,61.75
2019-03-26T09:26:07.711Z,62.03
2019-03-26T09:28:43.280Z,62.29
2019-03-26T09:31:18.642Z,61.78
2019-03-26T09:33:54.272Z,61.52
2019-03-26T09:36:29.629Z,61.28
2019-03-26T09:39:05.674Z,60.03
2019-03-26T09:41:41.272Z,59.74
2019-03-26T09:44:16.641Z,58.86
2019-03-26T09:46:52.144Z,57.54
2019-03-26T09:49:27.349Z,56.89
2019-03-26T09:52:02.676Z,55.64
2019-03-26T09:54:38.289Z,55.62
2019-03-26T09:57:13.797Z,55.62
2019-03-26T09:59:49.279Z,56.07
2019-03-26T10:02:24.642Z,56.48
2019-03-26T10:04:59.939Z,56.42
2019-03-26T10:07:33.594Z,55.00
2019-03-26T10:10:10.621Z,55.16
2019-03-26T10:12:45.907Z,54.62
2019-03-26T10:15:21.290Z,54.42
2019-03-26T10:17:56.665Z,53.80
2019-03-26T10:20:32.288Z,53.66
2019-03-26T10:23:07.661Z,53.65
2019-03-26T10:25:42.918Z,54.10
2019-03-26T10:28:18.131Z,54.09
2019-03-26T10:30:53.341Z,53.38
2019-03-26T10:33:28.673Z,53.38
2019-03-26T10:36:04.261Z,54.04
2019-03-26T10:38:39.671Z,54.41
2019-03-26T10:41:18.496Z,54.17
2019-03-26T10:43:52.281Z,53.63
2019-03-26T10:46:27.672Z,51.96
2019-03-26T10:49:03.124Z,49.98
2019-03-26T10:51:38.328Z,48.60
2019-03-26T10:54:13.651Z,48.60
2019-03-26T10:56:48.917Z,47.39
2019-03-26T10:59:24.275Z,46.02
2019-03-26T11:02:00.051Z,43.76
2019-03-26T11:04:35.668Z,43.73
2019-03-26T11:07:10.939Z,43.73
2019-03-26T11:09:46.282Z,43.40
2019-03-26T11:12:21.703Z,43.52
2019-03-26T11:14:57.261Z,43.47
2019-03-26T11:17:32.698Z,42.59
2019-03-26T11:20:08.785Z,41.79
2019-03-26T11:22:42.608Z,41.94
2019-03-26T11:25:18.102Z,42.04
2019-03-26T11:27:53.637Z,41.79
2019-03-26T11:30:28.907Z,39.18
2019-03-26T11:33:02.399Z,39.01
2019-03-26T11:35:37.591Z,39.39
2019-03-26T11:38:12.735Z,40.11
2019-03-26T11:40:48.277Z,40.10
2019-03-26T11:43:23.874Z,39.39
2019-03-26T11:45:57.677Z,39.24
2019-03-26T11:48:32.886Z,39.24
2019-03-26T11:51:06.606Z,39.31
2019-03-26T11:53:41.698Z,37.86
2019-03-26T11:56:17.295Z,37.86
2019-03-26T11:58:52.732Z,37.47
2019-03-26T12:01:28.280Z,35.71
2019-03-26T12:04:03.768Z,31.54
2019-03-26T12:06:38.903Z,32.49
2019-03-26T12:09:14.277Z,34.68
2019-03-26T12:11:49.688Z,35.69
2019-03-26T12:14:24.922Z,36.80
2019-03-26T12:18:11.340Z,36.44
2019-03-26T12:20:46.697Z,34.36
2019-03-26T12:23:22.274Z,35.55
2019-03-26T12:25:57.690Z,35.59
2019-03-26T12:28:33.262Z,31.47
2019-03-26T12:31:08.787Z,31.86
2019-03-26T12:33:42.557Z,33.52
2019-03-26T12:36:17.679Z,31.95
2019-03-26T12:38:53.136Z,31.95
2019-03-26T12:41:28.667Z,28.51
2019-03-26T12:44:03.895Z,28.51
2019-03-26T12:46:37.584Z,30.05
2019-03-26T12:49:12.679Z,28.14
2019-03-26T12:51:47.928Z,29.41
2019-03-26T12:54:23.281Z,27.72
2019-03-26T12:56:58.689Z,28.67
2019-03-26T12:59:34.433Z,28.45
2019-03-26T13:02:10.274Z,27.11
2019-03-26T13:04:45.658Z,29.02
2019-03-26T13:07:21.246Z,25.65
2019-03-26T13:09:56.678Z,25.65
2019-03-26T13:12:32.246Z,24.93
2019-03-26T13:15:09.276Z,25.64
2019-03-26T13:17:44.662Z,25.93
2019-03-26T13:20:20.136Z,23.77
2019-03-26T13:22:55.689Z,27.11
2019-03-26T13:25:31.156Z,27.11
2019-03-26T13:28:06.709Z,28.47
2019-03-26T13:30:42.106Z,29.98
2019-03-26T13:33:17.324Z,33.05
2019-03-26T13:35:52.650Z,33.05
2019-03-26T13:38:27.919Z,33.93
2019-03-26T13:41:03.269Z,33.80
2019-03-26T13:43:38.709Z,33.89
2019-03-26T13:46:14.281Z,34.39
2019-03-26T13:48:49.668Z,35.21
2019-03-26T13:51:24.930Z,35.09
2019-03-26T13:54:00.290Z,35.76
2019-03-26T13:56:35.672Z,36.39
2019-03-26T13:59:11.255Z,36.84
2019-03-26T14:01:46.678Z,36.84
2019-03-26T14:04:21.864Z,37.20
2019-03-26T14:06:55.559Z,38.09
2019-03-26T14:09:30.769Z,38.68
2019-03-26T14:12:04.562Z,39.31
2019-03-26T14:14:39.727Z,40.07
2019-03-26T14:17:15.929Z,40.94
2019-03-26T14:19:51.289Z,41.65
2019-03-26T14:22:26.665Z,41.13
2019-03-26T14:25:01.893Z,40.78
2019-03-26T14:27:35.572Z,41.58
2019-03-26T14:30:12.589Z,41.85
2019-03-26T14:32:47.891Z,41.75
2019-03-26T14:35:21.603Z,41.25
2019-03-26T14:37:56.776Z,41.18
2019-03-26T14:40:32.271Z,41.42
2019-03-26T14:43:08.111Z,41.67
2019-03-26T14:45:43.660Z,42.21
2019-03-26T14:48:19.249Z,42.01
2019-03-26T14:50:54.665Z,42.60
2019-03-26T14:53:30.269Z,43.10
2019-03-26T14:56:05.662Z,42.78
2019-03-26T14:58:41.926Z,43.31
2019-03-26T15:01:17.280Z,43.41
2019-03-26T15:03:52.690Z,43.59
2019-03-26T15:06:28.257Z,43.61
2019-03-26T15:09:04.275Z,43.75
2019-03-26T15:11:39.871Z,43.60
2019-03-26T15:14:13.582Z,43.42
2019-03-26T15:18:37.783Z,43.25
2019-03-26T15:21:13.268Z,40.00
2019-03-26T15:23:48.678Z,34.51
2019-03-26T15:26:23.882Z,34.13
2019-03-26T15:28:57.626Z,34.13
2019-03-26T15:31:32.834Z,32.85
2019-03-26T15:34:08.331Z,32.67
2019-03-26T15:36:43.650Z,34.77
2019-03-26T15:39:19.273Z,36.97
2019-03-26T15:41:54.678Z,38.74
2019-03-26T15:44:29.883Z,40.17
2019-03-26T15:47:03.604Z,40.17
2019-03-26T15:49:38.866Z,41.09
2019-03-26T15:52:12.575Z,42.80
2019-03-26T15:54:47.888Z,42.80
2019-03-26T15:57:21.706Z,43.52
2019-03-26T15:59:56.900Z,43.80
2019-03-26T16:02:30.707Z,44.56
2019-03-26T16:05:06.276Z,44.70
2019-03-26T16:07:41.704Z,45.84
2019-03-26T16:10:17.279Z,45.84
2019-03-26T16:12:52.730Z,46.05
2019-03-26T16:15:28.264Z,46.67
2019-03-26T16:18:03.884Z,46.97
2019-03-26T16:23:06.400Z,47.56
2019-03-26T16:25:42.279Z,47.79
2019-03-26T16:28:17.726Z,48.40
2019-03-26T16:30:53.277Z,48.94
2019-03-26T16:33:28.729Z,49.45
2019-03-26T16:36:04.288Z,49.88
2019-03-26T16:38:39.687Z,50.24
2019-03-26T16:41:15.269Z,50.65
2019-03-26T16:43:50.681Z,51.00
2019-03-26T16:46:26.271Z,51.39
2019-03-26T16:49:01.770Z,51.71
2019-03-26T16:51:37.325Z,51.86
2019-03-26T16:54:12.745Z,52.03
2019-03-26T16:56:48.236Z,52.23
2019-03-26T17:01:35.676Z,53.18
2019-03-26T17:04:11.263Z,53.18
2019-03-26T17:06:46.667Z,53.30
2019-03-26T17:09:22.260Z,53.75
2019-03-26T17:12:03.575Z,53.86
2019-03-26T17:14:34.679Z,54.31
2019-03-26T17:17:10.284Z,54.38
2019-03-26T17:19:45.693Z,55.51
2019-03-26T17:22:21.278Z,56.00
2019-03-26T17:24:56.691Z,56.46
2019-03-26T17:27:32.290Z,56.47
2019-03-26T17:30:09.765Z,56.91
2019-03-26T17:32:45.323Z,57.16
2019-03-26T17:35:20.783Z,58.01
2019-03-26T17:37:59.883Z,58.76
2019-03-26T17:40:33.328Z,59.47
2019-03-26T17:43:08.644Z,60.04
2019-03-26T17:45:44.276Z,60.47
2019-03-26T17:48:19.653Z,60.93
2019-03-26T17:50:55.300Z,61.01
2019-03-26T17:53:30.781Z,60.92
2019-03-26T17:56:06.292Z,61.15
2019-03-26T17:58:41.722Z,61.04
2019-03-26T18:01:17.306Z,61.47
2019-03-26T18:03:52.684Z,61.78
2019-03-26T18:06:27.933Z,62.26
2019-03-26T18:09:03.471Z,62.51
2019-03-26T18:11:39.385Z,62.64
2019-03-26T18:14:14.942Z,62.80
2019-03-26T18:16:48.662Z,63.06
2019-03-26T18:19:23.936Z,63.82
2019-03-26T18:21:57.685Z,64.69
2019-03-26T18:24:33.289Z,65.52
2019-03-26T18:27:08.902Z,66.54
2019-03-26T18:29:42.664Z,67.66
2019-03-26T18:32:17.948Z,68.33
2019-03-26T18:34:53.309Z,68.59
2019-03-26T18:37:28.682Z,69.10
2019-03-26T18:40:04.348Z,69.33
2019-03-26T18:42:44.287Z,69.57
2019-03-26T18:45:17.276Z,69.97
2019-03-26T18:50:13.948Z,70.38
2019-03-26T18:52:49.686Z,70.38
2019-03-26T18:55:25.503Z,70.98
2019-03-26T18:58:00.887Z,71.34
2019-03-26T19:00:38.206Z,71.33
2019-03-26T19:03:13.729Z,71.82
2019-03-26T19:05:49.256Z,72.25
2019-03-26T19:08:24.638Z,72.43
2019-03-26T19:11:00.274Z,72.48
2019-03-26T19:13:35.678Z,72.76
2019-03-26T19:16:11.278Z,72.83
2019-03-26T19:18:46.695Z,72.85
2019-03-26T19:21:22.243Z,73.16
2019-03-26T19:25:57.710Z,73.62
2019-03-26T19:28:33.278Z,73.62
2019-03-26T19:31:08.727Z,74.01
2019-03-26T19:33:44.266Z,74.29
2019-03-26T19:36:19.683Z,74.06
2019-03-26T19:38:55.274Z,74.25
2019-03-26T19:41:30.681Z,73.68
2019-03-26T19:44:06.299Z,73.29
2019-03-26T19:46:41.707Z,73.30
2019-03-26T19:49:17.271Z,73.14
2019-03-26T19:51:52.731Z,73.04
2019-03-26T19:54:28.281Z,73.30
2019-03-26T19:57:03.715Z,73.64
2019-03-26T19:59:39.259Z,73.37
2019-03-26T20:02:14.689Z,73.36
2019-03-26T20:04:50.254Z,73.32
2019-03-26T20:07:25.875Z,73.16
2019-03-26T20:10:00.859Z,73.26
2019-03-26T20:12:34.604Z,73.28
2019-03-26T20:15:11.735Z,73.40
2019-03-26T20:17:47.277Z,73.23
2019-03-26T20:20:22.890Z,73.31
2019-03-26T20:22:59.285Z,73.52
2019-03-26T20:25:34.998Z,73.41
2019-03-26T20:28:11.670Z,73.41
2019-03-26T20:30:47.278Z,73.43
2019-03-26T20:33:22.693Z,73.56
2019-03-26T20:35:58.286Z,74.02
2019-03-26T20:38:33.921Z,74.32
2019-03-26T20:41:07.695Z,74.06
2019-03-26T20:43:43.301Z,74.26
2019-03-26T20:46:18.685Z,74.29
2019-03-26T20:48:54.703Z,74.50
2019-03-26T20:51:30.281Z,74.55
2019-03-26T20:54:05.726Z,73.91
2019-03-26T20:56:41.467Z,73.52
2019-03-26T20:59:17.282Z,73.22
2019-03-26T21:01:53.692Z,73.11
2019-03-26T21:04:29.275Z,72.94
2019-03-26T21:07:04.796Z,72.29
2019-03-26T21:09:40.278Z,72.25
2019-03-26T21:12:15.665Z,72.10
2019-03-26T21:14:51.275Z,72.23
2019-03-26T21:17:26.643Z,72.36
2019-03-26T21:20:02.267Z,72.51
2019-03-26T21:22:37.695Z,72.34
2019-03-26T21:25:13.731Z,72.34
2019-03-26T21:27:49.302Z,72.53
2019-03-26T21:30:24.960Z,72.57
2019-03-26T21:33:00.375Z,72.57
2019-03-26T21:35:35.902Z,72.55
2019-03-26T21:38:11.314Z,72.49
2019-03-26T21:40:47.536Z,72.89
2019-03-26T21:43:23.288Z,72.93
2019-03-26T21:45:59.888Z,72.79
2019-03-26T21:48:34.559Z,72.99
2019-03-26T21:51:10.436Z,72.96
2019-03-26T21:53:46.370Z,72.96
2019-03-26T21:56:21.867Z,72.92
2019-03-26T21:58:56.271Z,72.79
2019-03-26T22:01:31.913Z,72.69
2019-03-26T22:04:07.880Z,72.47
2019-03-26T22:06:43.433Z,72.59
2019-03-26T22:09:19.469Z,72.43
2019-03-26T22:11:55.297Z,72.07
2019-03-26T22:14:31.284Z,72.24
2019-03-26T22:17:07.324Z,72.25
2019-03-26T22:19:43.294Z,72.42
2019-03-26T22:22:19.156Z,72.47
2019-03-26T22:24:55.290Z,72.69
2019-03-26T22:27:31.296Z,72.79
2019-03-26T22:30:09.039Z,72.62
2019-03-26T22:32:44.950Z,72.65
2019-03-26T22:35:20.401Z,72.65
2019-03-26T22:37:56.329Z,72.41
2019-03-26T22:40:32.314Z,72.40
2019-03-26T22:43:08.726Z,72.53
2019-03-26T22:45:43.123Z,72.58
2019-03-26T22:48:19.312Z,72.72
2019-03-26T22:50:55.130Z,72.72
2019-03-26T22:53:30.961Z,72.79
2019-03-26T22:56:07.301Z,72.91
2019-03-26T22:58:43.432Z,72.91
2019-03-26T23:01:19.498Z,72.67
2019-03-26T23:03:56.443Z,72.41
2019-03-26T23:06:32.510Z,72.68
2019-03-26T23:09:09.321Z,72.72
2019-03-26T23:11:46.375Z,72.48
2019-03-26T23:14:22.297Z,72.45
2019-03-26T23:16:57.953Z,72.15
2019-03-26T23:19:32.305Z,72.14
2019-03-26T23:22:08.291Z,72.21
2019-03-26T23:24:44.315Z,72.09
2019-03-26T23:27:20.294Z,72.09
2019-03-26T23:29:56.552Z,72.06
2019-03-26T23:32:32.891Z,72.05
2019-03-26T23:35:07.605Z,72.01
2019-03-26T23:37:43.304Z,72.50
2019-03-26T23:40:19.977Z,72.22
2019-03-26T23:42:55.754Z,72.46
2019-03-26T23:45:31.540Z,72.46
2019-03-26T23:48:07.693Z,72.61
2019-03-26T23:50:43.369Z,72.73
2019-03-26T23:53:19.469Z,72.45
2019-03-26T23:55:55.591Z,72.34
2019-03-26T23:58:32.287Z,72.43
